Current Weather

Ankeny Rgnl

Ankeny, Iowa (KIKV)

Report from: Wednesday, August 17, 2022 7:55 PM CDT
Current time: Wednesday, August 17, 2022 8:26 PM CDT

Nearby weather
Weather history
Weather forecast

Temperature24.0°C (75.2°F)
Dew point17.0°C (62.6°F)
Winds Calm
Visibility10 mi. (16.1 km)
Clouds Sky clear
Altimeter30.10 in.Hg (1019 mB)
Relative humidity65 %
Density altitude1,107 ft. (337 m)
Remarks Fully automated report
Automated weather observing station with precipitation discriminator
Flight conditions Visual Meteorological Conditions
Raw dataKIKV 180055Z AUTO 00000KT 10SM CLR 24/17 A3010 RMK AO2
An error has occurred. This application may no longer respond until reloaded. Reload 🗙